PWSweather.com
Personal Weather Stations
Station Observations
KMAMEDFI2
Medfield, MA 02052

Medfield, MA 02052

Lat: 42.1900822, Lon: -71.3296889

Elevation: 138

Station Type: Rainwise WS MK-III

http://www.medfieldweather.com

High Low Average
Temperature 40.9°F4.9°C 8.3°F-13.2°C 25.5°F-3.6°C
Dew Point 23.7°F-4.6°C 6.5°F-14.2°C 16.9°F-8.4°C
Winds 4.6 mph 7.4 kmh Calm Calm 1.0 mph WSW1.6 kmh WSW
Wind Gusts 8.1 mph13.0 kmh -- 1.0 mph1.6 kmh
Humidity 93% 42% 73%
Pressure 30.35 in1027.8 mb 30.18 in1022.0 mb -
Precipitation 0.05 in1.3 mm - -
Hour Temp Dew Point Humidity Winds Wind Gusts Pressure Precip Precip Rate Daily Precip Total
12:00 AM 10.2°F-12.1°C 8.3°F-13.2°C 92% Calm Calm -- 30.23 in1023.7 mb - 0.00 in0.0 mm 0.20 in5.1 mm
12:10 AM 9.5°F-12.5°C 7.6°F-13.6°C 92% Calm Calm -- 30.22 in1023.4 mb - 0.00 in0.0 mm 0.20 in5.1 mm
12:20 AM 9.7°F-12.4°C 7.9°F-13.4°C 92% Calm Calm -- 30.22 in1023.4 mb - 0.00 in0.0 mm 0.20 in5.1 mm
12:30 AM 10.4°F-12.0°C 8.5°F-13.1°C 92% 1.2 mph NW1.9 kmh NW 1.2 mph1.9 kmh 30.21 in1023.0 mb - 0.00 in0.0 mm 0.20 in5.1 mm
12:40 AM 10.2°F-12.1°C 8.3°F-13.2°C 92% Calm Calm -- 30.23 in1023.7 mb - 0.00 in0.0 mm 0.20 in5.1 mm
12:50 AM 9.4°F-12.6°C 7.5°F-13.6°C 92% Calm Calm -- 30.22 in1023.4 mb - 0.00 in0.0 mm 0.20 in5.1 mm
01:00 AM 9.3°F-12.6°C 7.4°F-13.7°C 92% Calm Calm -- 30.22 in1023.4 mb - 0.00 in0.0 mm 0.00 in0.0 mm
01:10 AM 8.9°F-12.8°C 7.1°F-13.8°C 92% Calm Calm -- 30.22 in1023.4 mb - 0.00 in0.0 mm 0.00 in0.0 mm
01:20 AM 8.6°F-13.0°C 6.8°F-14.0°C 92% Calm Calm -- 30.23 in1023.7 mb - 0.00 in0.0 mm 0.00 in0.0 mm
01:30 AM 8.8°F-12.9°C 6.9°F-13.9°C 92% Calm Calm -- 30.23 in1023.7 mb - 0.00 in0.0 mm 0.00 in0.0 mm
01:40 AM 8.7°F-12.9°C 6.9°F-13.9°C 92% Calm Calm -- 30.24 in1024.0 mb - 0.00 in0.0 mm 0.00 in0.0 mm
01:50 AM 8.3°F-13.2°C 6.5°F-14.2°C 92% Calm Calm -- 30.24 in1024.0 mb - 0.00 in0.0 mm 0.00 in0.0 mm
02:00 AM 9.2°F-12.7°C 7.4°F-13.7°C 92% Calm Calm -- 30.24 in1024.0 mb - 0.00 in0.0 mm 0.00 in0.0 mm
02:10 AM 9.5°F-12.5°C 7.6°F-13.6°C 92% Calm Calm -- 30.24 in1024.0 mb - 0.00 in0.0 mm 0.00 in0.0 mm
02:20 AM 9.8°F-12.3°C 7.9°F-13.4°C 92% Calm Calm -- 30.25 in1024.4 mb - 0.00 in0.0 mm 0.00 in0.0 mm
02:30 AM 10.6°F-11.9°C 8.7°F-12.9°C 92% Calm Calm -- 30.23 in1023.7 mb - 0.00 in0.0 mm 0.00 in0.0 mm
02:40 AM 11.5°F-11.4°C 9.9°F-12.3°C 93% Calm Calm -- 30.24 in1024.0 mb - 0.00 in0.0 mm 0.00 in0.0 mm
02:50 AM 11.5°F-11.4°C 9.9°F-12.3°C 93% Calm Calm -- 30.24 in1024.0 mb - 0.00 in0.0 mm 0.00 in0.0 mm
03:00 AM 11.4°F-11.4°C 9.8°F-12.3°C 93% Calm Calm -- 30.24 in1024.0 mb - 0.00 in0.0 mm 0.00 in0.0 mm
03:10 AM 11.2°F-11.6°C 9.6°F-12.4°C 93% Calm Calm -- 30.24 in1024.0 mb - 0.00 in0.0 mm 0.00 in0.0 mm
03:20 AM 11.1°F-11.6°C 9.5°F-12.5°C 93% Calm Calm -- 30.23 in1023.7 mb - 0.00 in0.0 mm 0.00 in0.0 mm
03:30 AM 11.5°F-11.4°C 9.9°F-12.3°C 93% Calm Calm -- 30.23 in1023.7 mb - 0.00 in0.0 mm 0.00 in0.0 mm
03:40 AM 11.9°F-11.2°C 10.3°F-12.1°C 93% Calm Calm 1.2 mph1.9 kmh 30.23 in1023.7 mb - 0.00 in0.0 mm 0.00 in0.0 mm
03:50 AM 12.5°F-10.8°C 10.9°F-11.7°C 93% Calm Calm -- 30.24 in1024.0 mb - 0.00 in0.0 mm 0.00 in0.0 mm
04:00 AM 12.4°F-10.9°C 10.8°F-11.8°C 93% Calm Calm -- 30.23 in1023.7 mb - 0.00 in0.0 mm 0.00 in0.0 mm
04:10 AM 11.9°F-11.2°C 10.3°F-12.1°C 93% Calm Calm -- 30.24 in1024.0 mb - 0.00 in0.0 mm 0.00 in0.0 mm
04:20 AM 11.2°F-11.6°C 9.6°F-12.4°C 93% Calm Calm -- 30.24 in1024.0 mb - 0.00 in0.0 mm 0.00 in0.0 mm
04:30 AM 11.1°F-11.6°C 9.5°F-12.5°C 93% Calm Calm -- 30.24 in1024.0 mb - 0.00 in0.0 mm 0.00 in0.0 mm
04:40 AM 11.2°F-11.6°C 9.6°F-12.4°C 93% Calm Calm -- 30.24 in1024.0 mb - 0.00 in0.0 mm 0.00 in0.0 mm
04:50 AM 11.4°F-11.4°C 9.8°F-12.3°C 93% Calm Calm -- 30.24 in1024.0 mb - 0.00 in0.0 mm 0.00 in0.0 mm
05:00 AM 11.9°F-11.2°C 10.3°F-12.1°C 93% 2.3 mph NW3.7 kmh NW 2.3 mph3.7 kmh 30.25 in1024.4 mb - 0.00 in0.0 mm 0.00 in0.0 mm
05:10 AM 12.3°F-10.9°C 10.7°F-11.8°C 93% Calm Calm -- 30.25 in1024.4 mb - 0.00 in0.0 mm 0.00 in0.0 mm
05:20 AM 12.5°F-10.8°C 10.8°F-11.8°C 93% Calm Calm -- 30.25 in1024.4 mb - 0.00 in0.0 mm 0.00 in0.0 mm
05:30 AM 12.8°F-10.7°C 11.1°F-11.6°C 93% Calm Calm -- 30.26 in1024.7 mb - 0.00 in0.0 mm 0.00 in0.0 mm
05:40 AM 13.2°F-10.4°C 11.5°F-11.4°C 93% 1.2 mph NW1.9 kmh NW 1.2 mph1.9 kmh 30.26 in1024.7 mb - 0.00 in0.0 mm 0.00 in0.0 mm
05:50 AM 13.6°F-10.2°C 12.0°F-11.1°C 93% Calm Calm -- 30.26 in1024.7 mb - 0.00 in0.0 mm 0.00 in0.0 mm
06:00 AM 13.9°F-10.1°C 12.3°F-10.9°C 93% Calm Calm -- 30.26 in1024.7 mb - 0.00 in0.0 mm 0.00 in0.0 mm
06:10 AM 14.2°F-9.9°C 12.5°F-10.8°C 93% Calm Calm -- 30.26 in1024.7 mb - 0.00 in0.0 mm 0.00 in0.0 mm
06:20 AM 14.5°F-9.7°C 12.8°F-10.7°C 93% Calm Calm -- 30.27 in1025.1 mb - 0.00 in0.0 mm 0.00 in0.0 mm
06:30 AM 14.8°F-9.6°C 13.1°F-10.5°C 93% Calm Calm -- 30.26 in1024.7 mb - 0.00 in0.0 mm 0.00 in0.0 mm
06:40 AM 15.1°F-9.4°C 13.4°F-10.3°C 93% Calm Calm -- 30.27 in1025.1 mb - 0.00 in0.0 mm 0.00 in0.0 mm
06:50 AM 15.3°F-9.3°C 13.6°F-10.2°C 93% Calm Calm -- 30.28 in1025.4 mb - 0.00 in0.0 mm 0.00 in0.0 mm
07:00 AM 15.6°F-9.1°C 13.9°F-10.1°C 93% Calm Calm -- 30.28 in1025.4 mb - 0.00 in0.0 mm 0.00 in0.0 mm
07:10 AM 15.9°F-8.9°C 14.2°F-9.9°C 93% Calm Calm -- 30.28 in1025.4 mb - 0.00 in0.0 mm 0.00 in0.0 mm
07:20 AM 15.9°F-8.9°C 14.2°F-9.9°C 93% Calm Calm -- 30.29 in1025.7 mb - 0.00 in0.0 mm 0.00 in0.0 mm
07:30 AM 16.1°F-8.8°C 14.4°F-9.8°C 93% Calm Calm -- 30.30 in1026.1 mb - 0.00 in0.0 mm 0.00 in0.0 mm
07:40 AM 16.3°F-8.7°C 14.6°F-9.7°C 93% Calm Calm -- 30.30 in1026.1 mb - 0.00 in0.0 mm 0.00 in0.0 mm
07:50 AM 16.5°F-8.6°C 14.8°F-9.6°C 93% Calm Calm 2.3 mph3.7 kmh 30.29 in1025.7 mb - 0.00 in0.0 mm 0.00 in0.0 mm
08:00 AM 16.9°F-8.4°C 15.2°F-9.3°C 93% Calm Calm -- 30.30 in1026.1 mb - 0.00 in0.0 mm 0.00 in0.0 mm
08:10 AM 17.4°F-8.1°C 15.7°F-9.1°C 93% Calm Calm -- 30.30 in1026.1 mb - 0.00 in0.0 mm 0.00 in0.0 mm
08:20 AM 17.9°F-7.8°C 16.2°F-8.8°C 93% 1.2 mph NW1.9 kmh NW 1.2 mph1.9 kmh 30.30 in1026.1 mb - 0.00 in0.0 mm 0.00 in0.0 mm
08:30 AM 18.5°F-7.5°C 13.3°F-10.4°C 80% 2.3 mph SW3.7 kmh SW 2.3 mph3.7 kmh 30.31 in1026.4 mb - 0.00 in0.0 mm 0.00 in0.0 mm
08:40 AM 19.2°F-7.1°C 15.1°F-9.4°C 84% 1.2 mph S1.9 kmh S 1.2 mph1.9 kmh 30.32 in1026.8 mb - 0.00 in0.0 mm 0.00 in0.0 mm
08:50 AM 19.9°F-6.7°C 15.0°F-9.4°C 81% Calm Calm -- 30.33 in1027.1 mb - 0.00 in0.0 mm 0.00 in0.0 mm
09:00 AM 20.7°F-6.3°C 15.5°F-9.2°C 80% Calm Calm -- 30.33 in1027.1 mb - 0.00 in0.0 mm 0.00 in0.0 mm
09:10 AM 21.7°F-5.7°C 14.0°F-10.0°C 72% Calm Calm -- 30.32 in1026.8 mb - 0.00 in0.0 mm 0.00 in0.0 mm
09:20 AM 22.1°F-5.5°C 13.5°F-10.3°C 69% Calm Calm 2.3 mph3.7 kmh 30.33 in1027.1 mb - 0.00 in0.0 mm 0.00 in0.0 mm
09:30 AM 22.9°F-5.1°C 12.2°F-11.0°C 63% 2.3 mph W3.7 kmh W 2.3 mph3.7 kmh 30.33 in1027.1 mb - 0.00 in0.0 mm 0.00 in0.0 mm
09:40 AM 24.6°F-4.1°C 12.3°F-10.9°C 59% 2.3 mph W3.7 kmh W 2.3 mph3.7 kmh 30.34 in1027.4 mb - 0.00 in0.0 mm 0.00 in0.0 mm
09:50 AM 25.2°F-3.8°C 10.9°F-11.7°C 54% 2.3 mph WSW3.7 kmh WSW 3.5 mph5.6 kmh 30.34 in1027.4 mb - 0.00 in0.0 mm 0.00 in0.0 mm
10:00 AM 25.6°F-3.6°C 12.0°F-11.1°C 56% Calm Calm 3.5 mph5.6 kmh 30.34 in1027.4 mb - 0.00 in0.0 mm 0.00 in0.0 mm
10:10 AM 26.2°F-3.2°C 13.0°F-10.6°C 57% 3.5 mph W5.6 kmh W 2.3 mph3.7 kmh 30.35 in1027.8 mb - 0.00 in0.0 mm 0.00 in0.0 mm
10:20 AM 27.3°F-2.6°C 13.6°F-10.2°C 56% 2.3 mph WSW3.7 kmh WSW 2.3 mph3.7 kmh 30.34 in1027.4 mb - 0.00 in0.0 mm 0.00 in0.0 mm
10:30 AM 27.4°F-2.6°C 13.3°F-10.4°C 55% 3.5 mph NW5.6 kmh NW 5.8 mph9.3 kmh 30.34 in1027.4 mb - 0.00 in0.0 mm 0.00 in0.0 mm
10:40 AM 28.2°F-2.1°C 13.7°F-10.2°C 54% Calm Calm 1.2 mph1.9 kmh 30.34 in1027.4 mb - 0.00 in0.0 mm 0.00 in0.0 mm
10:50 AM 29.9°F-1.2°C 12.5°F-10.8°C 48% 2.3 mph NE3.7 kmh NE 2.3 mph3.7 kmh 30.34 in1027.4 mb - 0.00 in0.0 mm 0.00 in0.0 mm
11:00 AM 30.4°F-0.9°C 10.5°F-11.9°C 43% 2.3 mph SW3.7 kmh SW 2.3 mph3.7 kmh 30.34 in1027.4 mb - 0.00 in0.0 mm 0.00 in0.0 mm
11:10 AM 30.8°F-0.7°C 10.3°F-12.1°C 42% 3.5 mph W5.6 kmh W 5.8 mph9.3 kmh 30.35 in1027.8 mb - 0.00 in0.0 mm 0.00 in0.0 mm
11:20 AM 31.8°F-0.1°C 11.3°F-11.5°C 42% 1.2 mph SW1.9 kmh SW 2.3 mph3.7 kmh 30.34 in1027.4 mb - 0.00 in0.0 mm 0.00 in0.0 mm
11:30 AM 32.9°F0.5°C 12.3°F-10.9°C 42% 1.2 mph S1.9 kmh S 2.3 mph3.7 kmh 30.35 in1027.8 mb - 0.00 in0.0 mm 0.00 in0.0 mm
11:40 AM 33.7°F0.9°C 13.0°F-10.6°C 42% 2.3 mph SSE3.7 kmh SSE 2.3 mph3.7 kmh 30.35 in1027.8 mb - 0.00 in0.0 mm 0.00 in0.0 mm
11:50 AM 34.9°F1.6°C 15.2°F-9.3°C 44% 4.6 mph SSE7.4 kmh SSE 8.1 mph13.0 kmh 30.34 in1027.4 mb - 0.01 in0.3 mm 0.01 in0.3 mm
12:00 PM 35.8°F2.1°C 16.0°F-8.9°C 44% 3.5 mph SE5.6 kmh SE 3.5 mph5.6 kmh 30.34 in1027.4 mb - 0.01 in0.3 mm 0.01 in0.3 mm
12:10 PM 36.3°F2.4°C 15.4°F-9.2°C 42% 3.5 mph SW5.6 kmh SW 3.5 mph5.6 kmh 30.34 in1027.4 mb - 0.01 in0.3 mm 0.01 in0.3 mm
12:20 PM 37.0°F2.8°C 16.0°F-8.9°C 42% 2.3 mph S3.7 kmh S 3.5 mph5.6 kmh 30.35 in1027.8 mb - 0.02 in0.5 mm 0.02 in0.5 mm
12:30 PM 36.9°F2.7°C 18.5°F-7.5°C 47% 3.5 mph SSE5.6 kmh SSE 2.3 mph3.7 kmh 30.35 in1027.8 mb - 0.02 in0.5 mm 0.02 in0.5 mm
12:40 PM 36.9°F2.7°C 17.5°F-8.1°C 45% 2.3 mph S3.7 kmh S 2.3 mph3.7 kmh 30.34 in1027.4 mb - 0.02 in0.5 mm 0.02 in0.5 mm
12:50 PM 36.5°F2.5°C 18.7°F-7.4°C 48% 4.6 mph SSW7.4 kmh SSW 3.5 mph5.6 kmh 30.34 in1027.4 mb - 0.03 in0.8 mm 0.03 in0.8 mm
01:00 PM 36.9°F2.7°C 20.9°F-6.2°C 52% 3.5 mph WNW5.6 kmh WNW 3.5 mph5.6 kmh 30.33 in1027.1 mb - 0.02 in0.5 mm 0.03 in0.8 mm
01:10 PM 36.3°F2.4°C 20.8°F-6.2°C 53% 4.6 mph WSW7.4 kmh WSW 5.8 mph9.3 kmh 30.33 in1027.1 mb - 0.02 in0.5 mm 0.03 in0.8 mm
01:20 PM 36.8°F2.7°C 20.8°F-6.2°C 52% 1.2 mph SSE1.9 kmh SSE 2.3 mph3.7 kmh 30.33 in1027.1 mb - 0.01 in0.3 mm 0.03 in0.8 mm
01:30 PM 39.1°F3.9°C 22.0°F-5.6°C 50% 1.2 mph NW1.9 kmh NW 2.3 mph3.7 kmh 30.33 in1027.1 mb - 0.02 in0.5 mm 0.04 in1.0 mm
01:40 PM 40.2°F4.6°C 22.1°F-5.5°C 48% 2.3 mph SW3.7 kmh SW 2.3 mph3.7 kmh 30.33 in1027.1 mb - 0.02 in0.5 mm 0.04 in1.0 mm
01:50 PM 40.4°F4.7°C 22.3°F-5.4°C 48% 3.5 mph SSW5.6 kmh SSW 5.8 mph9.3 kmh 30.33 in1027.1 mb - 0.01 in0.3 mm 0.04 in1.0 mm
02:00 PM 38.8°F3.8°C 22.2°F-5.4°C 51% 1.2 mph SSW1.9 kmh SSW 2.3 mph3.7 kmh 30.33 in1027.1 mb - 0.01 in0.3 mm 0.04 in1.0 mm
02:10 PM 38.4°F3.6°C 21.8°F-5.7°C 51% 2.3 mph NW3.7 kmh NW 2.3 mph3.7 kmh 30.32 in1026.8 mb - 0.01 in0.3 mm 0.04 in1.0 mm
02:20 PM 39.5°F4.2°C 23.3°F-4.8°C 52% 4.6 mph WSW7.4 kmh WSW 6.9 mph11.1 kmh 30.32 in1026.8 mb - 0.01 in0.3 mm 0.04 in1.0 mm
02:30 PM 38.5°F3.6°C 21.5°F-5.8°C 50% 1.2 mph N1.9 kmh N 2.3 mph3.7 kmh 30.31 in1026.4 mb - 0.00 in0.0 mm 0.04 in1.0 mm
02:40 PM 40.0°F4.4°C 22.3°F-5.4°C 49% 3.5 mph NNE5.6 kmh NNE 8.1 mph13.0 kmh 30.31 in1026.4 mb - 0.00 in0.0 mm 0.04 in1.0 mm
02:50 PM 39.9°F4.4°C 22.7°F-5.2°C 50% 4.6 mph S7.4 kmh S 3.5 mph5.6 kmh 30.31 in1026.4 mb - 0.00 in0.0 mm 0.04 in1.0 mm
03:00 PM 39.8°F4.3°C 22.7°F-5.2°C 50% 3.5 mph SW5.6 kmh SW 2.3 mph3.7 kmh 30.31 in1026.4 mb - 0.00 in0.0 mm 0.04 in1.0 mm
03:10 PM 40.5°F4.7°C 22.3°F-5.4°C 48% 1.2 mph SE1.9 kmh SE 1.2 mph1.9 kmh 30.31 in1026.4 mb - 0.01 in0.3 mm 0.05 in1.3 mm
03:20 PM 39.7°F4.3°C 22.1°F-5.5°C 49% 3.5 mph S5.6 kmh S 3.5 mph5.6 kmh 30.31 in1026.4 mb - 0.01 in0.3 mm 0.05 in1.3 mm
03:30 PM 40.0°F4.4°C 22.3°F-5.4°C 49% 1.2 mph E1.9 kmh E 2.3 mph3.7 kmh 30.31 in1026.4 mb - 0.01 in0.3 mm 0.05 in1.3 mm
03:40 PM 40.3°F4.6°C 22.6°F-5.2°C 49% 2.3 mph S3.7 kmh S 2.3 mph3.7 kmh 30.31 in1026.4 mb - 0.01 in0.3 mm 0.05 in1.3 mm
03:50 PM 40.8°F4.9°C 23.1°F-4.9°C 49% 3.5 mph W5.6 kmh W 5.8 mph9.3 kmh 30.31 in1026.4 mb - 0.01 in0.3 mm 0.05 in1.3 mm
04:00 PM 40.9°F4.9°C 23.2°F-4.9°C 49% 3.5 mph SSE5.6 kmh SSE 5.8 mph9.3 kmh 30.30 in1026.1 mb - 0.01 in0.3 mm 0.05 in1.3 mm
04:10 PM 40.4°F4.7°C 23.7°F-4.6°C 51% 2.3 mph W3.7 kmh W 2.3 mph3.7 kmh 30.29 in1025.7 mb - 0.00 in0.0 mm 0.05 in1.3 mm
04:20 PM 40.2°F4.6°C 22.5°F-5.3°C 49% 3.5 mph ESE5.6 kmh ESE 2.3 mph3.7 kmh 30.29 in1025.7 mb - 0.00 in0.0 mm 0.05 in1.3 mm
04:30 PM 40.0°F4.4°C 23.7°F-4.6°C 52% 2.3 mph SW3.7 kmh SW 2.3 mph3.7 kmh 30.29 in1025.7 mb - 0.00 in0.0 mm 0.05 in1.3 mm
04:40 PM 40.0°F4.4°C 22.8°F-5.1°C 50% 1.2 mph ESE1.9 kmh ESE 2.3 mph3.7 kmh 30.30 in1026.1 mb - 0.00 in0.0 mm 0.05 in1.3 mm
04:50 PM 40.0°F4.4°C 23.3°F-4.8°C 51% 2.3 mph SSW3.7 kmh SSW 3.5 mph5.6 kmh 30.31 in1026.4 mb - 0.00 in0.0 mm 0.05 in1.3 mm
05:00 PM 40.3°F4.6°C 23.1°F-4.9°C 50% 3.5 mph S5.6 kmh S 8.1 mph13.0 kmh 30.30 in1026.1 mb - 0.00 in0.0 mm 0.05 in1.3 mm
05:10 PM 39.3°F4.1°C 23.1°F-4.9°C 52% 2.3 mph W3.7 kmh W 3.5 mph5.6 kmh 30.29 in1025.7 mb - 0.00 in0.0 mm 0.05 in1.3 mm
05:20 PM 39.4°F4.1°C 22.7°F-5.2°C 51% 1.2 mph SSE1.9 kmh SSE 3.5 mph5.6 kmh 30.29 in1025.7 mb - 0.00 in0.0 mm 0.05 in1.3 mm
05:30 PM 38.7°F3.7°C 22.5°F-5.3°C 52% 1.2 mph SSE1.9 kmh SSE 2.3 mph3.7 kmh 30.29 in1025.7 mb - 0.00 in0.0 mm 0.05 in1.3 mm
05:40 PM 37.9°F3.3°C 21.8°F-5.7°C 52% 2.3 mph SW3.7 kmh SW 3.5 mph5.6 kmh 30.29 in1025.7 mb - 0.00 in0.0 mm 0.05 in1.3 mm
05:50 PM 36.4°F2.4°C 22.2°F-5.4°C 56% 1.2 mph SE1.9 kmh SE 2.3 mph3.7 kmh 30.29 in1025.7 mb - 0.00 in0.0 mm 0.05 in1.3 mm
06:00 PM 35.4°F1.9°C 22.5°F-5.3°C 59% Calm Calm 1.2 mph1.9 kmh 30.28 in1025.4 mb - 0.00 in0.0 mm 0.05 in1.3 mm
06:10 PM 34.5°F1.4°C 22.4°F-5.3°C 61% Calm Calm -- 30.27 in1025.1 mb - 0.00 in0.0 mm 0.05 in1.3 mm
06:20 PM 33.5°F0.8°C 21.4°F-5.9°C 61% Calm Calm -- 30.27 in1025.1 mb - 0.00 in0.0 mm 0.05 in1.3 mm
06:30 PM 32.3°F0.2°C 21.8°F-5.7°C 65% Calm Calm -- 30.27 in1025.1 mb - 0.00 in0.0 mm 0.05 in1.3 mm
06:40 PM 30.9°F-0.6°C 20.8°F-6.2°C 66% Calm Calm -- 30.26 in1024.7 mb - 0.00 in0.0 mm 0.05 in1.3 mm
06:50 PM 29.6°F-1.3°C 20.7°F-6.3°C 69% Calm Calm -- 30.26 in1024.7 mb - 0.00 in0.0 mm 0.05 in1.3 mm
07:00 PM 29.9°F-1.2°C 21.0°F-6.1°C 69% 1.2 mph SW1.9 kmh SW 2.3 mph3.7 kmh 30.26 in1024.7 mb - 0.00 in0.0 mm 0.05 in1.3 mm
07:10 PM 30.5°F-0.8°C 21.2°F-6.0°C 68% Calm Calm -- 30.26 in1024.7 mb - 0.00 in0.0 mm 0.05 in1.3 mm
07:20 PM 30.5°F-0.8°C 20.5°F-6.4°C 66% Calm Calm -- 30.26 in1024.7 mb - 0.00 in0.0 mm 0.05 in1.3 mm
07:30 PM 30.2°F-1.0°C 20.5°F-6.4°C 67% 1.2 mph SSW1.9 kmh SSW 2.3 mph3.7 kmh 30.26 in1024.7 mb - 0.00 in0.0 mm 0.05 in1.3 mm
07:40 PM 30.1°F-1.1°C 20.4°F-6.4°C 67% Calm Calm 2.3 mph3.7 kmh 30.27 in1025.1 mb - 0.00 in0.0 mm 0.05 in1.3 mm
07:50 PM 29.8°F-1.2°C 20.9°F-6.2°C 69% Calm Calm 1.2 mph1.9 kmh 30.26 in1024.7 mb - 0.00 in0.0 mm 0.05 in1.3 mm
08:00 PM 29.1°F-1.6°C 20.5°F-6.4°C 70% Calm Calm -- 30.27 in1025.1 mb - 0.00 in0.0 mm 0.05 in1.3 mm
08:10 PM 28.2°F-2.1°C 20.3°F-6.5°C 72% Calm Calm -- 30.27 in1025.1 mb - 0.00 in0.0 mm 0.05 in1.3 mm
08:20 PM 27.2°F-2.7°C 19.7°F-6.8°C 73% Calm Calm -- 30.26 in1024.7 mb - 0.00 in0.0 mm 0.05 in1.3 mm
08:30 PM 26.1°F-3.3°C 19.6°F-6.9°C 76% Calm Calm -- 30.27 in1025.1 mb - 0.00 in0.0 mm 0.05 in1.3 mm
08:40 PM 25.4°F-3.7°C 19.5°F-6.9°C 78% Calm Calm -- 30.26 in1024.7 mb - 0.00 in0.0 mm 0.05 in1.3 mm
08:50 PM 25.1°F-3.8°C 20.7°F-6.3°C 83% Calm Calm -- 30.26 in1024.7 mb - 0.00 in0.0 mm 0.05 in1.3 mm
09:00 PM 25.9°F-3.4°C 21.2°F-6.0°C 82% Calm Calm -- 30.25 in1024.4 mb - 0.00 in0.0 mm 0.05 in1.3 mm
09:10 PM 25.8°F-3.4°C 20.8°F-6.2°C 81% Calm Calm -- 30.26 in1024.7 mb - 0.00 in0.0 mm 0.05 in1.3 mm
09:20 PM 25.9°F-3.4°C 20.9°F-6.2°C 81% Calm Calm -- 30.26 in1024.7 mb - 0.00 in0.0 mm 0.05 in1.3 mm
09:30 PM 25.5°F-3.6°C 20.8°F-6.2°C 82% Calm Calm -- 30.26 in1024.7 mb - 0.00 in0.0 mm 0.05 in1.3 mm
09:40 PM 25.5°F-3.6°C 21.3°F-5.9°C 84% Calm Calm -- 30.25 in1024.4 mb - 0.00 in0.0 mm 0.05 in1.3 mm
09:50 PM 25.1°F-3.8°C 21.0°F-6.1°C 84% Calm Calm -- 30.24 in1024.0 mb - 0.00 in0.0 mm 0.05 in1.3 mm
10:00 PM 25.6°F-3.6°C 21.7°F-5.7°C 85% Calm Calm -- 30.24 in1024.0 mb - 0.00 in0.0 mm 0.05 in1.3 mm
10:10 PM 25.7°F-3.5°C 21.6°F-5.8°C 84% Calm Calm -- 30.24 in1024.0 mb - 0.00 in0.0 mm 0.05 in1.3 mm
10:20 PM 25.7°F-3.5°C 21.5°F-5.8°C 84% Calm Calm -- 30.24 in1024.0 mb - 0.00 in0.0 mm 0.05 in1.3 mm
10:30 PM 25.7°F-3.5°C 21.5°F-5.8°C 84% Calm Calm -- 30.24 in1024.0 mb - 0.00 in0.0 mm 0.05 in1.3 mm
10:40 PM 25.7°F-3.5°C 21.3°F-5.9°C 83% Calm Calm -- 30.24 in1024.0 mb - 0.00 in0.0 mm 0.05 in1.3 mm
10:50 PM 25.9°F-3.4°C 21.8°F-5.7°C 84% Calm Calm -- 30.24 in1024.0 mb - 0.00 in0.0 mm 0.05 in1.3 mm
11:00 PM 26.1°F-3.3°C 22.5°F-5.3°C 86% Calm Calm -- 30.23 in1023.7 mb - 0.00 in0.0 mm 0.05 in1.3 mm
11:10 PM 26.4°F-3.1°C 22.5°F-5.3°C 85% Calm Calm -- 30.22 in1023.4 mb - 0.00 in0.0 mm 0.05 in1.3 mm
11:20 PM 26.1°F-3.3°C 22.5°F-5.3°C 86% Calm Calm -- 30.23 in1023.7 mb - 0.00 in0.0 mm 0.05 in1.3 mm
11:30 PM 25.5°F-3.6°C 22.5°F-5.3°C 88% Calm Calm -- 30.22 in1023.4 mb - 0.00 in0.0 mm 0.05 in1.3 mm
11:40 PM 25.7°F-3.5°C 22.7°F-5.2°C 88% Calm Calm -- 30.21 in1023.0 mb - 0.00 in0.0 mm 0.05 in1.3 mm
11:50 PM 25.5°F-3.6°C 22.5°F-5.3°C 88% Calm Calm -- 30.21 in1023.0 mb - 0.00 in0.0 mm 0.05 in1.3 mm